Pittsburg, NH

12:51 AM EDT on June 03, 2015 (GMT -0400)
First Connecticut Lake | | Change Station
CLOSE
Current Station
Personal Weather Station
Location: Pittsburg, NH
Elevation: 1854 ft
Nearby Weather Stations

Elev 1854 ft 45.11 °N, 71.29 °W | Updated 13 seconds ago

Overcast
Overcast
41.4 °F
Feels Like 41 °F
N
0.0
Wind Variable Wind from NW
Gusts 0.0 mph

Today
High -- | Low -- °F
--% Chance of Precip.
Yesterday
High -- | Low -- °F
Precip. -- in
5:00 AM 8:26 PM
Full, 100% visible
Pressure 30.16 in
Visibility 2.5 miles
Clouds Scattered Clouds 300 ft
Overcast 1000 ft
Windchill 41 °F
Dew Point 41 °F
Humidity 97%
Rainfall 0.00 in
Snow Depth Not available.
UV 0.0 out of 12
Pollen 3.70 out of 12
Air Quality Not available.
Flu Activity Sporadic
SPECI KBML 030438Z AUTO 00000KT 2 1/2SM -RA BR SCT003 OVC010 08/07 A3016 RMK AO2 RAB28 P0001 T00830072

More Conditions Fewer Conditions

Pressure 30.16 in
Visibility 2.5 miles
Clouds Scattered Clouds 300 ft
Overcast 1000 ft
Windchill 41 °F
Dew Point 41 °F
Humidity 97%
Rainfall 0.00 in
Snow Depth Not available.
UV 0.0 out of 12
Pollen 3.70 out of 12
Air Quality Not available.
Flu Activity Sporadic
SPECI KBML 030438Z AUTO 00000KT 2 1/2SM -RA BR SCT003 OVC010 08/07 A3016 RMK AO2 RAB28 P0001 T00830072

More Conditions Fewer Conditions

10-Day Weather Forecast

×

Almanac

Astronomy

Jun. 03, 2015 Rise Set
Actual Time
Civil Twilight
Nautical Twilight
Astronomical Twilight
Moon
Length of Visible Light
Length of Day
Tomorrow will be .
, % of the Moon is Illuminated

Today's Extremes

State Highs State Lows

Community

WunderPhotos

Upload Photos

1,826,166 photos uploaded!

WunderBlogs® & News

Nearby

Air Quality

  Air Quality AQ Index Pollutant
Not available.

Snow Depth

Station Depth Elevation

Earthquake Activity

City Distance Mag. Time & Date
Minimum magnitude displayed is 2.5.

Coastal Water Temperatures

Place Temperature

Stations

Nearby Weather Stations

Station Location Temp. Windchill Dew Point Humidity Wind Precip. Elev Updated Type